Time;durP1;ratioP1;P1;durP2;ratioP2;P2;SDS_P1;SDS_P2;PMS_P1;PMS_P2;Temp;Humidity;BMP_temperature;BMP_pressure;BME280_temperature;BME280_humidity;BME280_pressure;Samples;Min_cycle;Max_cycle;Signal;HPM_P1;HPM_P2
2023/03/14 00:00:51;;;;;;;0.87;0.70;;;10.70;99.90;;;;;;4144876;28;20302;-75
2023/03/14 00:02:54;;;;;;;1.20;0.80;;;10.70;99.90;;;;;;4153195;28;20203;-74
2023/03/14 00:04:57;;;;;;;2.00;0.70;;;10.70;99.90;;;;;;4135005;28;20212;-73
2023/03/14 00:06:58;;;;;;;3.40;0.70;;;10.70;99.90;;;;;;4135383;28;20265;-74
2023/03/14 00:09:02;;;;;;;1.40;0.90;;;10.70;99.90;;;;;;4141713;28;20302;-74
2023/03/14 00:11:08;;;;;;;3.50;1.00;;;10.60;99.90;;;;;;4137131;28;20577;-75
2023/03/14 00:13:10;;;;;;;1.17;0.80;;;10.60;99.90;;;;;;4151256;28;20210;-75
2023/03/14 00:15:13;;;;;;;1.97;0.73;;;10.60;99.90;;;;;;4135583;28;20242;-75
2023/03/14 00:17:15;;;;;;;2.07;0.80;;;10.60;99.90;;;;;;4135947;28;20282;-75
2023/03/14 00:19:17;;;;;;;1.73;0.70;;;10.60;99.90;;;;;;4136770;28;20249;-76
2023/03/14 00:21:19;;;;;;;2.00;0.87;;;10.60;99.90;;;;;;4137610;28;20660;-75
2023/03/14 00:23:21;;;;;;;1.50;0.60;;;10.60;99.90;;;;;;4137901;28;20208;-74
2023/03/14 00:25:24;;;;;;;0.73;0.63;;;10.60;99.90;;;;;;4140861;28;20641;-76
2023/03/14 00:27:26;;;;;;;1.53;0.80;;;10.60;99.90;;;;;;4137214;28;20261;-75
2023/03/14 00:29:28;;;;;;;0.83;0.77;;;10.60;99.90;;;;;;4151907;28;20719;-75
2023/03/14 00:31:30;;;;;;;2.30;0.70;;;10.60;99.90;;;;;;4135486;28;20665;-74
2023/03/14 00:33:32;;;;;;;1.03;0.60;;;10.60;99.90;;;;;;4136482;28;20709;-75
2023/03/14 00:35:34;;;;;;;1.43;0.70;;;10.50;99.90;;;;;;4136971;28;20223;-74
2023/03/14 00:37:36;;;;;;;1.87;0.77;;;10.50;99.90;;;;;;4135399;28;20681;-74
2023/03/14 00:39:38;;;;;;;2.70;0.70;;;10.90;99.90;;;;;;4138114;28;20238;-75
2023/03/14 00:41:41;;;;;;;1.43;1.07;;;10.50;99.90;;;;;;4136924;28;20219;-75
2023/03/14 00:43:43;;;;;;;0.70;0.60;;;10.50;99.90;;;;;;4138098;28;20639;-75
2023/03/14 00:45:45;;;;;;;1.30;0.80;;;10.50;99.90;;;;;;4136480;28;20215;-76
2023/03/14 00:47:47;;;;;;;2.30;0.93;;;10.50;99.90;;;;;;4138578;28;20261;-75
2023/03/14 00:49:49;;;;;;;1.53;0.80;;;10.50;99.90;;;;;;4136015;28;20262;-74
2023/03/14 00:51:51;;;;;;;1.10;0.70;;;10.50;99.90;;;;;;4136279;28;20339;-75
2023/03/14 00:53:53;;;;;;;3.10;0.90;;;10.50;99.90;;;;;;4134030;28;20235;-75
2023/03/14 00:55:55;;;;;;;0.67;0.60;;;10.50;99.90;;;;;;4134544;28;20697;-75
2023/03/14 00:57:58;;;;;;;1.47;0.80;;;10.50;99.90;;;;;;4134735;28;20249;-74
2023/03/14 01:00:00;;;;;;;0.97;0.70;;;10.50;99.90;;;;;;4137747;28;20233;-75
2023/03/14 01:02:02;;;;;;;2.03;0.70;;;10.50;99.90;;;;;;4135583;28;20303;-75
2023/03/14 01:04:04;;;;;;;2.50;0.80;;;10.50;99.90;;;;;;4136179;28;20241;-74
2023/03/14 01:06:11;;;;;;;0.90;0.80;;;10.50;99.90;;;;;;4135212;28;20294;-75
2023/03/14 01:08:13;;;;;;;1.77;0.80;;;10.50;99.90;;;;;;4136155;28;20228;-73
2023/03/14 01:10:15;;;;;;;3.83;0.83;;;10.50;99.90;;;;;;4136359;28;20250;-73
2023/03/14 01:12:17;;;;;;;0.63;0.63;;;10.50;99.90;;;;;;4138085;28;20235;-75
2023/03/14 01:14:20;;;;;;;2.23;0.70;;;10.50;99.90;;;;;;4136313;28;20207;-75
2023/03/14 01:16:24;;;;;;;1.33;0.90;;;10.50;99.90;;;;;;4138600;28;20749;-74
2023/03/14 01:18:26;;;;;;;1.33;0.60;;;10.50;99.90;;;;;;4135949;28;20215;-72
2023/03/14 01:20:28;;;;;;;0.70;0.60;;;10.50;99.90;;;;;;4140500;28;20231;-74
2023/03/14 01:22:30;;;;;;;1.03;0.60;;;10.60;99.90;;;;;;4140573;28;20229;-72
2023/03/14 01:24:32;;;;;;;0.83;0.70;;;10.60;99.90;;;;;;4135515;28;20214;-74
2023/03/14 01:26:35;;;;;;;1.90;0.50;;;10.60;99.90;;;;;;4137858;28;20211;-74
2023/03/14 01:28:37;;;;;;;0.63;0.60;;;10.60;99.90;;;;;;4152619;28;20318;-74
2023/03/14 01:30:40;;;;;;;1.20;0.50;;;10.60;99.90;;;;;;4151883;28;20325;-75
2023/03/14 01:32:42;;;;;;;3.03;0.60;;;10.60;99.90;;;;;;4134956;28;20210;-74
2023/03/14 01:34:44;;;;;;;1.20;0.60;;;10.70;99.90;;;;;;4137913;28;20253;-73
2023/03/14 01:36:46;;;;;;;0.93;0.47;;;10.70;99.90;;;;;;4139950;28;20225;-74
2023/03/14 01:38:48;;;;;;;1.93;0.57;;;10.70;99.90;;;;;;4135746;28;20301;-73
2023/03/14 01:40:50;;;;;;;0.63;0.50;;;10.70;99.90;;;;;;4136820;28;20310;-74
2023/03/14 01:42:56;;;;;;;2.17;0.60;;;10.80;99.90;;;;;;4136751;28;20221;-74
2023/03/14 01:45:00;;;;;;;1.00;0.50;;;10.80;99.90;;;;;;4138988;28;20297;-72
2023/03/14 01:47:04;;;;;;;1.07;0.50;;;10.80;99.90;;;;;;4141369;28;20455;-74
2023/03/14 01:49:23;;;;;;;0.40;0.40;;;10.90;99.90;;;;;;4141142;28;20233;-74
2023/03/14 01:51:31;;;;;;;0.90;0.60;;;10.90;99.90;;;;;;4138562;28;20220;-74
2023/03/14 01:53:33;;;;;;;0.73;0.60;;;10.90;99.90;;;;;;4140579;28;20948;-74
2023/03/14 01:55:37;;;;;;;0.70;0.60;;;10.80;99.90;;;;;;4142372;28;20245;-74
2023/03/14 01:57:41;;;;;;;0.60;0.40;;;10.90;99.90;;;;;;4138847;28;20222;-73
2023/03/14 01:59:49;;;;;;;0.70;0.50;;;10.90;99.90;;;;;;4141112;28;20242;-75
2023/03/14 02:01:52;;;;;;;2.43;0.50;;;10.90;99.90;;;;;;4138327;28;20214;-75
2023/03/14 02:03:59;;;;;;;2.17;0.60;;;10.90;99.90;;;;;;4143006;28;20311;-76
2023/03/14 02:06:07;;;;;;;0.50;0.40;;;10.90;99.90;;;;;;4139986;28;20246;-75
2023/03/14 02:08:13;;;;;;;0.70;0.50;;;10.90;99.90;;;;;;4138473;28;20321;-75
2023/03/14 02:10:18;;;;;;;3.03;0.70;;;10.80;99.90;;;;;;4137094;28;20271;-75
2023/03/14 02:12:22;;;;;;;3.47;0.60;;;10.80;99.90;;;;;;4137220;28;20227;-75
2023/03/14 02:14:31;;;;;;;2.20;0.53;;;10.80;99.90;;;;;;4141812;28;20668;-74
2023/03/14 02:16:33;;;;;;;0.93;0.50;;;10.80;99.90;;;;;;4138551;28;20272;-75
2023/03/14 02:18:35;;;;;;;0.60;0.40;;;10.80;99.90;;;;;;4137161;28;20680;-75
2023/03/14 02:20:45;;;;;;;2.30;0.50;;;10.80;99.90;;;;;;4139322;28;20241;-76
2023/03/14 02:22:48;;;;;;;1.67;0.40;;;10.80;99.90;;;;;;4141072;28;20207;-75
2023/03/14 02:25:01;;;;;;;3.03;0.60;;;10.80;99.90;;;;;;4139274;28;20226;-76
2023/03/14 02:27:10;;;;;;;0.83;0.60;;;10.80;99.90;;;;;;4138031;28;20897;-75
2023/03/14 02:29:12;;;;;;;1.73;0.47;;;10.70;99.90;;;;;;4135353;28;20233;-74
2023/03/14 02:31:14;;;;;;;0.70;0.37;;;10.70;99.90;;;;;;4140944;28;20346;-74
2023/03/14 02:33:19;;;;;;;2.77;0.60;;;10.70;99.90;;;;;;4138340;28;20273;-74
2023/03/14 02:35:24;;;;;;;2.20;0.50;;;10.70;99.90;;;;;;4140445;28;20306;-75
2023/03/14 02:37:31;;;;;;;0.73;0.50;;;10.70;99.90;;;;;;4138786;28;20216;-75
2023/03/14 02:39:38;;;;;;;0.70;0.50;;;10.70;99.90;;;;;;4136756;28;20250;-76
2023/03/14 02:41:42;;;;;;;1.10;0.50;;;10.70;99.90;;;;;;4141901;28;20680;-75
2023/03/14 02:43:45;;;;;;;0.77;0.60;;;10.70;99.90;;;;;;4138676;28;20208;-73
2023/03/14 02:45:48;;;;;;;1.67;0.63;;;10.70;99.90;;;;;;4136315;28;20311;-74
2023/03/14 02:47:54;;;;;;;0.60;0.40;;;10.60;99.90;;;;;;4137916;28;20215;-75
2023/03/14 02:50:02;;;;;;;1.47;0.50;;;10.60;99.90;;;;;;4137083;28;20261;-73
2023/03/14 02:52:05;;;;;;;3.80;0.60;;;10.60;99.90;;;;;;4135012;28;20214;-74
2023/03/14 02:54:08;;;;;;;1.37;0.70;;;10.70;99.90;;;;;;4133805;28;20215;-75
2023/03/14 02:56:11;;;;;;;2.77;0.60;;;10.60;99.90;;;;;;4135823;28;20308;-74
2023/03/14 02:58:13;;;;;;;0.83;0.57;;;10.60;99.90;;;;;;4140633;28;20211;-76
2023/03/14 03:00:17;;;;;;;0.30;0.30;;;10.60;99.90;;;;;;4137867;28;20323;-74
2023/03/14 03:02:19;;;;;;;2.27;0.50;;;10.60;99.90;;;;;;4138819;28;20214;-76
2023/03/14 03:04:21;;;;;;;1.83;0.70;;;10.60;99.90;;;;;;4136625;28;20277;-74
2023/03/14 03:06:23;;;;;;;0.77;0.50;;;10.60;99.90;;;;;;4139237;28;20583;-75
2023/03/14 03:08:27;;;;;;;1.10;0.63;;;10.60;99.90;;;;;;4138816;28;20957;-73
2023/03/14 03:10:29;;;;;;;1.87;1.20;;;10.60;99.90;;;;;;4136847;28;20670;-75
2023/03/14 03:12:31;;;;;;;1.40;0.90;;;10.60;99.90;;;;;;4139569;28;20751;-75
2023/03/14 03:14:33;;;;;;;0.53;0.40;;;10.60;99.90;;;;;;4140570;28;20211;-75
2023/03/14 03:16:39;;;;;;;0.80;0.50;;;10.60;99.90;;;;;;4139377;28;20310;-74
2023/03/14 03:18:41;;;;;;;4.23;0.63;;;10.60;99.90;;;;;;4137224;28;20239;-75
2023/03/14 03:20:43;;;;;;;0.90;0.50;;;10.70;99.90;;;;;;4141776;28;20221;-74
2023/03/14 03:22:45;;;;;;;2.10;0.60;;;10.70;99.90;;;;;;4139181;28;20660;-75
2023/03/14 03:24:47;;;;;;;2.17;0.80;;;10.70;99.90;;;;;;4136505;28;20218;-74
2023/03/14 03:26:49;;;;;;;1.07;0.60;;;10.70;99.90;;;;;;4139814;28;20211;-73
2023/03/14 03:28:51;;;;;;;3.33;0.80;;;10.70;99.90;;;;;;4139112;28;20334;-75
2023/03/14 03:30:53;;;;;;;1.00;0.53;;;10.70;99.90;;;;;;4153170;28;20637;-74
2023/03/14 03:32:57;;;;;;;0.97;0.60;;;10.70;99.90;;;;;;4139591;28;20291;-75
2023/03/14 03:34:59;;;;;;;2.87;0.80;;;10.70;99.90;;;;;;4137292;28;20257;-76
2023/03/14 03:37:00;;;;;;;2.93;0.73;;;10.70;99.90;;;;;;4138266;28;20217;-75
2023/03/14 03:39:03;;;;;;;2.00;0.63;;;10.70;99.90;;;;;;4137985;28;20235;-75
2023/03/14 03:41:06;;;;;;;0.63;0.47;;;10.70;99.90;;;;;;4139652;28;20264;-76
2023/03/14 03:43:08;;;;;;;2.53;0.53;;;10.70;99.90;;;;;;4141940;28;20282;-74
2023/03/14 03:45:11;;;;;;;0.37;0.37;;;10.70;99.90;;;;;;4138156;28;20603;-76
2023/03/14 03:47:13;;;;;;;2.10;0.73;;;10.70;99.90;;;;;;4134351;28;20211;-75
2023/03/14 03:49:16;;;;;;;1.63;0.80;;;10.70;99.90;;;;;;4138178;28;20251;-75
2023/03/14 03:51:18;;;;;;;1.87;0.90;;;10.80;99.90;;;;;;4135883;28;20290;-75
2023/03/14 03:53:19;;;;;;;1.07;0.50;;;10.80;99.90;;;;;;4139276;28;20253;-76
2023/03/14 03:55:21;;;;;;;1.80;0.70;;;10.80;99.90;;;;;;4136464;28;20327;-75
2023/03/14 03:57:23;;;;;;;1.50;0.60;;;10.80;99.90;;;;;;4138403;28;20298;-74
2023/03/14 03:59:25;;;;;;;2.07;0.60;;;10.80;99.90;;;;;;4139794;28;20785;-74
2023/03/14 04:01:27;;;;;;;1.40;0.40;;;10.80;99.90;;;;;;4138441;28;20297;-74
2023/03/14 04:03:29;;;;;;;5.10;0.50;;;10.80;99.90;;;;;;4138391;28;20261;-74
2023/03/14 04:05:34;;;;;;;3.60;0.50;;;10.80;99.90;;;;;;4150076;28;20661;-73
2023/03/14 04:07:36;;;;;;;3.03;0.70;;;10.80;99.90;;;;;;4153761;28;20664;-75
2023/03/14 04:09:39;;;;;;;2.63;0.50;;;10.80;99.90;;;;;;4135555;28;20231;-74
2023/03/14 04:11:41;;;;;;;2.97;0.50;;;10.80;99.90;;;;;;4152836;28;20212;-75
2023/03/14 04:13:43;;;;;;;0.53;0.40;;;10.80;99.90;;;;;;4138351;28;20203;-74
2023/03/14 04:15:47;;;;;;;1.27;0.63;;;10.60;99.90;;;;;;4139100;28;20194;-73
2023/03/14 04:17:49;;;;;;;2.20;0.80;;;11.20;99.90;;;;;;4135583;28;20277;-72
2023/03/14 04:19:53;;;;;;;4.87;1.40;;;10.80;99.90;;;;;;4136145;28;20230;-75
2023/03/14 04:21:57;;;;;;;3.77;1.37;;;10.70;99.90;;;;;;4138307;28;20207;-74
2023/03/14 04:23:59;;;;;;;3.33;0.90;;;11.00;99.90;;;;;;4139395;28;20217;-74
2023/03/14 04:26:01;;;;;;;4.50;0.70;;;10.80;99.90;;;;;;4151997;28;20202;-75
2023/03/14 04:28:04;;;;;;;2.43;0.70;;;10.80;99.90;;;;;;4134008;28;20693;-74
2023/03/14 04:30:09;;;;;;;2.23;0.70;;;10.80;99.90;;;;;;4135782;28;20233;-75
2023/03/14 04:32:11;;;;;;;1.60;0.60;;;10.80;99.90;;;;;;4136618;28;20251;-75
2023/03/14 04:34:13;;;;;;;2.40;0.70;;;10.80;99.90;;;;;;4152855;28;20723;-75
2023/03/14 04:36:15;;;;;;;1.97;0.60;;;11.20;99.90;;;;;;4138536;28;20235;-75
2023/03/14 04:38:18;;;;;;;1.20;0.60;;;10.80;99.90;;;;;;4139372;28;20207;-75
2023/03/14 04:40:20;;;;;;;1.90;0.80;;;10.80;99.90;;;;;;4137176;28;20230;-75
2023/03/14 04:42:25;;;;;;;7.17;0.83;;;10.80;99.90;;;;;;4136691;28;20735;-76
2023/03/14 04:44:27;;;;;;;4.57;0.70;;;10.80;99.90;;;;;;4152821;28;20305;-75
2023/03/14 04:46:29;;;;;;;2.83;0.80;;;10.80;99.90;;;;;;4136006;28;20534;-75
2023/03/14 04:48:31;;;;;;;2.10;0.73;;;10.80;99.90;;;;;;4137154;28;20216;-72
2023/03/14 04:50:33;;;;;;;2.90;0.80;;;10.70;99.90;;;;;;4141377;28;20231;-72
2023/03/14 04:52:35;;;;;;;2.10;0.60;;;10.70;99.90;;;;;;4137829;28;20260;-71
2023/03/14 04:54:38;;;;;;;2.40;0.60;;;10.70;99.90;;;;;;4141338;28;20215;-72
2023/03/14 04:56:40;;;;;;;1.10;0.50;;;10.70;99.90;;;;;;4140065;28;20764;-74
2023/03/14 04:58:43;;;;;;;0.60;0.40;;;10.70;99.90;;;;;;4142541;28;20202;-73
2023/03/14 05:00:46;;;;;;;1.43;0.80;;;10.70;99.90;;;;;;4138369;28;20231;-72
2023/03/14 05:02:47;;;;;;;1.43;0.60;;;10.70;99.90;;;;;;4137382;28;20206;-72
2023/03/14 05:04:49;;;;;;;2.73;0.80;;;10.70;99.90;;;;;;4136585;28;20211;-73
2023/03/14 05:06:51;;;;;;;3.07;0.80;;;10.60;99.90;;;;;;4155225;28;20206;-72
2023/03/14 05:08:53;;;;;;;5.27;0.80;;;10.60;99.90;;;;;;4141904;28;20210;-72
2023/03/14 05:10:58;;;;;;;2.27;0.77;;;10.60;99.90;;;;;;4144966;28;20231;-73
2023/03/14 05:13:00;;;;;;;4.20;0.93;;;10.60;99.90;;;;;;4140270;28;20234;-72
2023/03/14 05:15:02;;;;;;;2.80;0.73;;;10.60;99.90;;;;;;4138125;28;20222;-72
2023/03/14 05:17:04;;;;;;;2.63;0.80;;;10.60;99.90;;;;;;4138318;28;20290;-72
2023/03/14 05:19:05;;;;;;;2.70;0.80;;;10.50;99.90;;;;;;4142373;28;20215;-72
2023/03/14 05:21:10;;;;;;;3.60;0.90;;;10.50;99.90;;;;;;4143844;28;20298;-72
2023/03/14 05:23:12;;;;;;;2.23;0.77;;;10.50;99.90;;;;;;4143413;28;20660;-73
2023/03/14 05:25:14;;;;;;;4.03;0.70;;;10.50;99.90;;;;;;4143029;28;20218;-72
2023/03/14 05:27:19;;;;;;;1.97;0.67;;;10.50;99.90;;;;;;4142106;28;20293;-74
2023/03/14 05:29:20;;;;;;;2.93;0.90;;;10.50;99.90;;;;;;4144901;28;20314;-72
2023/03/14 05:31:22;;;;;;;1.33;0.70;;;10.50;99.90;;;;;;4140083;28;20684;-72
2023/03/14 05:33:24;;;;;;;2.07;0.80;;;10.50;99.90;;;;;;4142309;28;20696;-74
2023/03/14 05:35:26;;;;;;;4.80;1.00;;;10.40;99.90;;;;;;4136621;28;20831;-74
2023/03/14 05:37:28;;;;;;;4.10;0.90;;;10.40;99.90;;;;;;4141014;28;20217;-72
2023/03/14 05:39:30;;;;;;;2.60;0.60;;;10.40;99.90;;;;;;4144435;28;20690;-72
2023/03/14 05:41:32;;;;;;;4.23;0.90;;;10.40;99.90;;;;;;4140445;28;20290;-72
2023/03/14 05:43:35;;;;;;;2.33;0.77;;;10.40;99.90;;;;;;4143662;28;20214;-73
2023/03/14 05:45:37;;;;;;;3.70;0.90;;;10.40;99.90;;;;;;4140360;28;20210;-72
2023/03/14 05:47:42;;;;;;;2.33;0.70;;;10.40;99.90;;;;;;4142287;28;20329;-72
2023/03/14 05:49:48;;;;;;;6.33;0.93;;;10.40;99.90;;;;;;4157357;28;20237;-72
2023/03/14 05:51:50;;;;;;;2.77;0.90;;;10.40;99.90;;;;;;4142707;28;20692;-74
2023/03/14 05:53:52;;;;;;;3.83;1.13;;;10.40;99.90;;;;;;4141773;28;20216;-74
2023/03/14 05:55:54;;;;;;;4.17;0.80;;;10.40;99.90;;;;;;4140082;28;20250;-73
2023/03/14 05:57:56;;;;;;;1.87;0.70;;;10.50;99.90;;;;;;4140529;28;20282;-73
2023/03/14 06:00:00;;;;;;;1.20;0.80;;;10.50;99.90;;;;;;4141894;28;20247;-72
2023/03/14 06:02:02;;;;;;;2.13;0.70;;;10.50;99.90;;;;;;4140659;28;20889;-72
2023/03/14 06:04:04;;;;;;;4.23;1.03;;;10.50;99.90;;;;;;4142962;28;20276;-75
2023/03/14 06:06:06;;;;;;;4.73;1.10;;;10.50;99.90;;;;;;4139980;28;20214;-76
2023/03/14 06:08:11;;;;;;;3.83;0.80;;;10.60;99.90;;;;;;4139175;28;20335;-74
2023/03/14 06:10:13;;;;;;;4.53;1.10;;;10.60;99.90;;;;;;4140879;28;20724;-74
2023/03/14 06:12:15;;;;;;;3.37;0.80;;;10.60;99.90;;;;;;4138561;28;20216;-75
2023/03/14 06:14:17;;;;;;;8.67;1.00;;;10.60;99.90;;;;;;4137996;28;20218;-74
2023/03/14 06:16:21;;;;;;;3.97;0.90;;;10.60;99.90;;;;;;4138117;28;20701;-76
2023/03/14 06:18:23;;;;;;;4.20;0.87;;;10.60;99.90;;;;;;4138336;28;20207;-74
2023/03/14 06:20:25;;;;;;;2.17;0.77;;;10.40;99.90;;;;;;4137387;28;20782;-75
2023/03/14 06:22:27;;;;;;;3.83;1.00;;;10.60;99.90;;;;;;4136225;28;20242;-74
2023/03/14 06:24:29;;;;;;;4.43;1.00;;;10.70;99.90;;;;;;4139164;28;20218;-74
2023/03/14 06:26:31;;;;;;;2.70;1.00;;;10.70;99.90;;;;;;4138317;28;20219;-73
2023/03/14 06:28:33;;;;;;;2.67;0.80;;;10.70;99.90;;;;;;4138931;28;20872;-76
2023/03/14 06:30:35;;;;;;;6.27;0.90;;;10.70;99.90;;;;;;4137855;28;20227;-75
2023/03/14 06:32:38;;;;;;;5.53;0.80;;;10.70;99.90;;;;;;4153260;28;20664;-75
2023/03/14 06:34:40;;;;;;;4.80;0.70;;;10.70;99.90;;;;;;4140023;28;20208;-74
2023/03/14 06:36:42;;;;;;;1.93;0.70;;;10.70;99.90;;;;;;4142202;28;20671;-75
2023/03/14 06:38:44;;;;;;;3.60;0.90;;;10.70;99.90;;;;;;4141197;28;20294;-73
2023/03/14 06:40:46;;;;;;;4.23;0.90;;;10.70;99.90;;;;;;4156412;28;20424;-78
2023/03/14 06:42:48;;;;;;;4.90;0.80;;;10.70;99.90;;;;;;4137022;28;20266;-75
2023/03/14 06:44:55;;;;;;;5.97;1.10;;;10.70;99.90;;;;;;4140095;28;20215;-75
2023/03/14 06:46:57;;;;;;;2.33;0.67;;;10.70;99.90;;;;;;4137367;28;20215;-75
2023/03/14 06:49:04;;;;;;;2.93;0.80;;;10.70;99.90;;;;;;4139607;28;20633;-73
2023/03/14 06:51:06;;;;;;;3.97;0.80;;;10.70;99.90;;;;;;4139595;28;20245;-73
2023/03/14 06:53:08;;;;;;;2.50;0.80;;;10.70;99.90;;;;;;4139313;28;20208;-75
2023/03/14 06:55:11;;;;;;;2.83;0.80;;;10.70;99.90;;;;;;4136641;28;20254;-75
2023/03/14 06:57:12;;;;;;;2.63;0.80;;;10.70;99.90;;;;;;4128967;28;20215;-76
2023/03/14 06:59:14;;;;;;;4.33;1.10;;;10.70;99.90;;;;;;4141392;28;20259;-74
2023/03/14 07:01:23;;;;;;;3.63;0.90;;;10.80;99.90;;;;;;4142800;28;20215;-74
2023/03/14 07:03:25;;;;;;;3.63;0.87;;;10.70;99.90;;;;;;4138730;28;20298;-74
2023/03/14 07:05:28;;;;;;;1.90;0.83;;;10.70;99.90;;;;;;4139651;28;20235;-74
2023/03/14 07:07:31;;;;;;;3.47;0.77;;;10.70;99.90;;;;;;4140039;28;20294;-73
2023/03/14 07:09:33;;;;;;;2.63;1.00;;;10.70;99.90;;;;;;4139694;28;20223;-73
2023/03/14 07:11:35;;;;;;;5.27;0.97;;;10.70;99.90;;;;;;4141391;28;20451;-72
2023/03/14 07:13:37;;;;;;;1.97;0.70;;;10.70;99.90;;;;;;4138501;28;20299;-74
2023/03/14 07:15:39;;;;;;;3.33;1.00;;;10.70;99.90;;;;;;4138172;28;20240;-75
2023/03/14 07:17:41;;;;;;;0.97;0.60;;;10.70;99.90;;;;;;4139044;28;20207;-74
2023/03/14 07:19:43;;;;;;;3.17;0.80;;;10.80;99.90;;;;;;4141132;28;20223;-74
2023/03/14 07:21:46;;;;;;;4.07;0.80;;;10.80;99.90;;;;;;4152941;28;20252;-75
2023/03/14 07:23:48;;;;;;;1.93;0.50;;;10.80;99.90;;;;;;4139355;28;20292;-74
2023/03/14 07:25:53;;;;;;;7.67;1.10;;;10.80;99.90;;;;;;4140270;28;20286;-74
2023/03/14 07:27:55;;;;;;;5.37;0.90;;;10.90;99.90;;;;;;4137717;28;20224;-73
2023/03/14 07:29:57;;;;;;;1.03;0.60;;;10.90;99.90;;;;;;4140745;28;20254;-73
2023/03/14 07:31:59;;;;;;;1.40;0.63;;;10.90;99.90;;;;;;4143149;28;21112;-74
2023/03/14 07:34:01;;;;;;;2.60;0.70;;;10.90;99.90;;;;;;4140884;28;20290;-74
2023/03/14 07:36:03;;;;;;;2.53;0.50;;;11.00;99.90;;;;;;4138235;28;20862;-75
2023/03/14 07:38:06;;;;;;;4.67;0.87;;;11.00;99.90;;;;;;4140139;28;20248;-74
2023/03/14 07:40:10;;;;;;;2.20;0.70;;;11.10;99.90;;;;;;4139132;28;20346;-72
2023/03/14 07:42:12;;;;;;;3.33;0.50;;;11.10;99.90;;;;;;4139782;28;20211;-73
2023/03/14 07:44:14;;;;;;;1.53;0.60;;;11.10;99.90;;;;;;4137124;28;20211;-74
2023/03/14 07:46:17;;;;;;;3.57;1.00;;;11.20;99.90;;;;;;4133756;28;20245;-74
2023/03/14 07:48:19;;;;;;;1.73;0.73;;;11.20;99.90;;;;;;4138194;28;20215;-74
2023/03/14 07:50:21;;;;;;;3.70;0.70;;;11.20;99.90;;;;;;4132815;28;20231;-75
2023/03/14 07:52:23;;;;;;;3.50;0.73;;;11.20;99.90;;;;;;4138326;28;21241;-74
2023/03/14 07:54:26;;;;;;;3.83;0.90;;;11.20;99.90;;;;;;4140662;28;20637;-74
2023/03/14 07:56:28;;;;;;;2.27;0.70;;;11.20;99.90;;;;;;4134880;28;20304;-72
2023/03/14 07:58:30;;;;;;;2.80;0.80;;;11.20;99.90;;;;;;4134768;28;20616;-73
2023/03/14 08:00:32;;;;;;;1.97;0.67;;;11.20;99.90;;;;;;4139978;28;20313;-72
2023/03/14 08:02:35;;;;;;;1.87;0.50;;;11.20;99.90;;;;;;4138924;28;20262;-73
2023/03/14 08:04:37;;;;;;;3.13;0.90;;;11.20;99.90;;;;;;4138451;28;20251;-73
2023/03/14 08:06:39;;;;;;;2.33;0.60;;;11.30;99.90;;;;;;4136220;28;20216;-74
2023/03/14 08:08:41;;;;;;;3.07;0.60;;;11.30;99.90;;;;;;4136696;28;20314;-73
2023/03/14 08:10:46;;;;;;;2.23;0.63;;;11.40;99.90;;;;;;4134794;28;20314;-73
2023/03/14 08:12:47;;;;;;;1.53;0.60;;;11.40;99.90;;;;;;4141939;28;20208;-74
2023/03/14 08:14:49;;;;;;;5.67;0.80;;;11.40;99.90;;;;;;4136946;28;20207;-75
2023/03/14 08:16:52;;;;;;;2.40;0.70;;;11.40;99.90;;;;;;4135895;28;20254;-73
2023/03/14 08:18:55;;;;;;;4.13;0.70;;;11.40;99.90;;;;;;4137482;28;20218;-74
2023/03/14 08:20:57;;;;;;;2.43;0.70;;;11.40;99.90;;;;;;4136398;28;20646;-75
2023/03/14 08:23:01;;;;;;;2.80;0.80;;;11.40;99.90;;;;;;4138177;28;20214;-73
2023/03/14 08:25:03;;;;;;;4.03;0.73;;;11.50;99.90;;;;;;4136596;28;20206;-73
2023/03/14 08:27:09;;;;;;;4.13;0.93;;;11.60;99.90;;;;;;4135764;28;20203;-73
2023/03/14 08:29:12;;;;;;;1.73;0.80;;;11.60;99.90;;;;;;4139132;28;20277;-73
2023/03/14 08:31:14;;;;;;;2.47;0.70;;;11.70;99.90;;;;;;4135190;28;20251;-72
2023/03/14 08:33:16;;;;;;;3.47;0.90;;;11.80;99.90;;;;;;4135536;28;20254;-75
2023/03/14 08:35:18;;;;;;;1.77;0.73;;;11.90;99.90;;;;;;4137757;28;20216;-76
2023/03/14 08:37:20;;;;;;;1.57;0.73;;;12.00;99.90;;;;;;4136493;28;20215;-73
2023/03/14 08:39:23;;;;;;;5.93;0.43;;;12.10;99.90;;;;;;4136013;28;20657;-73
2023/03/14 08:41:24;;;;;;;1.40;0.60;;;12.20;99.90;;;;;;4137575;28;20213;-73
2023/03/14 08:43:28;;;;;;;2.67;0.80;;;12.20;99.90;;;;;;4137010;28;20582;-72
2023/03/14 08:45:30;;;;;;;2.93;0.60;;;12.30;99.90;;;;;;4136056;28;20709;-73
2023/03/14 08:47:32;;;;;;;2.50;0.60;;;12.30;99.90;;;;;;4137511;28;20208;-72
2023/03/14 08:49:34;;;;;;;3.23;0.67;;;12.40;99.90;;;;;;4135228;28;20270;-73
2023/03/14 08:51:39;;;;;;;1.73;0.60;;;12.50;99.90;;;;;;4136567;28;20638;-73
2023/03/14 08:53:42;;;;;;;3.40;0.60;;;12.50;99.90;;;;;;4136363;28;20207;-72
2023/03/14 08:55:44;;;;;;;1.47;0.50;;;12.60;99.90;;;;;;4139750;28;20611;-73
2023/03/14 08:57:46;;;;;;;6.20;0.83;;;12.60;99.90;;;;;;4138732;28;20291;-71
2023/03/14 08:59:50;;;;;;;2.20;0.60;;;12.60;99.90;;;;;;4138722;28;20235;-72
2023/03/14 09:01:52;;;;;;;2.87;0.67;;;12.70;99.90;;;;;;4139431;28;20205;-72
2023/03/14 09:03:54;;;;;;;1.30;0.50;;;12.70;99.90;;;;;;4140490;28;20291;-73
2023/03/14 09:05:55;;;;;;;3.67;1.20;;;12.60;99.90;;;;;;4142190;28;20220;-73
2023/03/14 09:07:57;;;;;;;1.93;1.00;;;12.70;99.90;;;;;;4139773;28;20295;-73
2023/03/14 09:09:59;;;;;;;1.47;0.43;;;12.70;99.90;;;;;;4139344;28;20220;-73
2023/03/14 09:12:01;;;;;;;2.77;0.63;;;12.80;99.90;;;;;;4141067;28;20688;-73
2023/03/14 09:14:03;;;;;;;2.00;0.80;;;12.80;99.90;;;;;;4143071;28;20274;-72
2023/03/14 09:16:08;;;;;;;3.53;0.60;;;12.90;99.90;;;;;;4138454;28;20208;-73
2023/03/14 09:18:10;;;;;;;1.30;0.50;;;12.90;99.90;;;;;;4138458;28;20282;-73
2023/03/14 09:20:13;;;;;;;1.17;0.50;;;12.90;99.90;;;;;;4142345;28;20243;-73
2023/03/14 09:22:15;;;;;;;1.50;0.70;;;12.90;99.90;;;;;;4141288;28;20215;-72
2023/03/14 09:24:18;;;;;;;1.43;0.50;;;13.00;99.90;;;;;;4139574;28;20358;-72
2023/03/14 09:26:20;;;;;;;0.90;0.40;;;13.00;99.90;;;;;;4139788;28;20631;-72
2023/03/14 09:28:22;;;;;;;1.90;0.70;;;13.00;99.90;;;;;;4154173;28;20734;-73
2023/03/14 09:30:24;;;;;;;2.37;0.67;;;12.90;99.90;;;;;;4142725;28;20656;-73
2023/03/14 09:32:27;;;;;;;3.80;0.47;;;12.90;99.90;;;;;;4140701;28;20328;-74
2023/03/14 09:34:29;;;;;;;2.47;0.53;;;12.90;99.90;;;;;;4138719;28;20200;-72
2023/03/14 09:36:31;;;;;;;3.43;0.40;;;12.90;99.90;;;;;;4138870;28;20291;-74
2023/03/14 09:38:33;;;;;;;1.47;0.50;;;12.90;99.90;;;;;;4137527;28;20231;-73
2023/03/14 09:40:37;;;;;;;0.97;0.30;;;12.90;99.90;;;;;;4142053;28;20260;-73
2023/03/14 09:42:40;;;;;;;2.43;0.50;;;13.00;99.90;;;;;;4143008;28;20284;-73
2023/03/14 09:44:50;;;;;;;4.73;0.73;;;13.00;99.90;;;;;;4142527;28;20225;-73
2023/03/14 09:46:55;;;;;;;1.83;0.57;;;13.00;99.90;;;;;;4144747;28;20709;-72
2023/03/14 09:48:58;;;;;;;1.43;0.60;;;13.10;99.90;;;;;;4142304;28;20267;-73
2023/03/14 09:51:05;;;;;;;1.23;0.47;;;13.10;99.90;;;;;;4141720;28;20303;-73
2023/03/14 09:53:12;;;;;;;5.23;0.70;;;13.10;99.90;;;;;;4142125;28;20211;-75
2023/03/14 09:55:16;;;;;;;2.27;0.80;;;13.20;99.90;;;;;;4142073;28;20292;-73
2023/03/14 09:57:20;;;;;;;1.60;0.47;;;13.20;99.90;;;;;;4137424;28;20218;-74
2023/03/14 09:59:22;;;;;;;2.50;0.70;;;13.20;99.90;;;;;;4140614;28;20274;-72
2023/03/14 10:01:27;;;;;;;1.73;0.60;;;13.20;99.90;;;;;;4139408;28;20642;-73
2023/03/14 10:03:32;;;;;;;1.27;0.50;;;13.20;99.90;;;;;;4140329;28;20281;-74
2023/03/14 10:05:35;;;;;;;1.47;0.40;;;13.20;99.90;;;;;;4136725;28;20726;-73
2023/03/14 10:07:38;;;;;;;0.90;0.40;;;13.20;99.90;;;;;;4138447;28;20237;-74
2023/03/14 10:09:39;;;;;;;1.80;0.70;;;13.20;99.90;;;;;;4138928;28;20307;-73
2023/03/14 10:11:41;;;;;;;3.80;0.50;;;13.20;99.90;;;;;;4140542;28;20691;-74
2023/03/14 10:14:05;;;;;;;0.40;0.40;;;13.20;99.90;;;;;;4137388;28;20716;-73
2023/03/14 10:16:08;;;;;;;1.87;0.47;;;13.20;99.90;;;;;;4140612;28;20239;-73
2023/03/14 10:18:13;;;;;;;1.70;0.50;;;13.10;99.90;;;;;;4142206;28;20204;-74
2023/03/14 10:20:35;;;;;;;1.30;0.53;;;13.20;99.90;;;;;;4141101;28;20224;-73
2023/03/14 10:22:38;;;;;;;1.70;0.50;;;13.10;99.90;;;;;;4143589;28;20312;-73
2023/03/14 10:24:46;;;;;;;1.67;0.40;;;13.10;99.90;;;;;;4143045;28;20240;-72
2023/03/14 10:26:54;;;;;;;2.00;0.50;;;13.10;99.90;;;;;;4142979;28;20258;-73
2023/03/14 10:29:04;;;;;;;2.30;0.43;;;13.10;99.90;;;;;;4141152;28;20239;-72
2023/03/14 10:31:07;;;;;;;1.13;0.43;;;13.00;99.90;;;;;;4142465;28;20207;-73
2023/03/14 10:33:11;;;;;;;1.47;0.50;;;13.10;99.90;;;;;;4141562;28;20642;-73
2023/03/14 10:35:22;;;;;;;1.07;0.40;;;13.10;99.90;;;;;;4139928;28;20187;-72
2023/03/14 10:37:27;;;;;;;3.50;0.43;;;13.20;99.90;;;;;;4140466;28;20235;-74
2023/03/14 10:39:43;;;;;;;2.37;0.47;;;13.30;99.90;;;;;;4144270;28;20252;-74
2023/03/14 10:41:49;;;;;;;1.60;0.40;;;13.30;99.90;;;;;;4140706;28;20247;-72